Terminal Aerodrome Forecast
Issued by NWS

Home | Current Version | Previous Version | Graphics & Text | Print | Product List | Glossary On
Versions: 1 2 3 4 5 6 7 8 9 10 11 12 13 14 15 16 17 18
000
FTUS43 KMPX 020534
TAFRNH
TAF
KRNH 020534Z 0206/0306 00000KT P6SM FEW250
     FM020800 00000KT P6SM SCT150
      TEMPO 0209/0213 6SM BR
     FM021600 16005KT P6SM FEW050 SCT250=

USA.gov is the U.S. government's official web portal to all federal, state and local government web resources and services.